createdAt,value
2022-08-07T00:02:37.481Z,18.66
2022-08-07T00:07:44.107Z,18.67
2022-08-07T00:13:00.115Z,18.57
2022-08-07T00:18:05.726Z,18.51
2022-08-07T00:23:09.578Z,18.39
2022-08-07T00:28:12.842Z,18.33
2022-08-07T00:33:18.631Z,18.27
2022-08-07T00:38:31.714Z,18.29
2022-08-07T00:43:59.485Z,18.25
2022-08-07T00:49:03.474Z,18.19
2022-08-07T00:54:07.949Z,18.11
2022-08-07T00:59:16.153Z,18.10
2022-08-07T01:04:24.696Z,18.23
2022-08-07T01:09:51.223Z,18.27
2022-08-07T01:14:57.067Z,18.23
2022-08-07T01:20:10.554Z,18.32
2022-08-07T01:25:53.529Z,18.15
2022-08-07T01:30:51.181Z,18.08
2022-08-07T01:36:06.542Z,18.19
2022-08-07T01:41:26.233Z,18.06
2022-08-07T01:46:35.218Z,18.12
2022-08-07T01:52:03.951Z,18.01
2022-08-07T01:57:24.264Z,18.05
2022-08-07T02:03:19.399Z,18.16
2022-08-07T02:08:03.689Z,18.10
2022-08-07T02:13:16.394Z,17.97
2022-08-07T02:18:29.939Z,17.84
2022-08-07T02:23:37.176Z,17.96
2022-08-07T02:28:42.172Z,18.01
2022-08-07T02:34:03.058Z,17.95
2022-08-07T02:39:43.802Z,17.76
2022-08-07T02:44:48.154Z,17.77
2022-08-07T02:49:57.550Z,17.75
2022-08-07T02:55:27.794Z,17.64
2022-08-07T03:00:46.818Z,17.63
2022-08-07T03:05:53.927Z,17.61
2022-08-07T03:10:58.795Z,17.51
2022-08-07T03:16:12.176Z,17.58
2022-08-07T03:21:18.946Z,17.58
2022-08-07T03:26:28.866Z,17.47
2022-08-07T03:31:43.554Z,17.44
2022-08-07T03:36:54.013Z,17.38
2022-08-07T03:42:00.766Z,17.46
2022-08-07T03:47:11.094Z,17.51
2022-08-07T03:52:22.689Z,17.65
2022-08-07T03:58:35.082Z,17.74
2022-08-07T04:03:04.330Z,17.84
2022-08-07T04:08:16.362Z,17.59
2022-08-07T04:13:27.779Z,17.60
2022-08-07T04:18:59.634Z,17.54
2022-08-07T04:24:06.982Z,17.50
2022-08-07T04:29:12.129Z,17.64
2022-08-07T04:34:27.344Z,17.89
2022-08-07T04:39:35.854Z,17.91
2022-08-07T04:45:02.630Z,17.95
2022-08-07T04:50:14.686Z,18.10
2022-08-07T04:58:11.330Z,18.27
2022-08-07T05:01:18.074Z,18.49
2022-08-07T05:06:51.205Z,18.83
2022-08-07T05:11:56.778Z,19.34
2022-08-07T05:17:11.680Z,19.78
2022-08-07T05:22:27.785Z,20.46
2022-08-07T05:28:02.031Z,20.71
2022-08-07T05:33:02.317Z,21.18
2022-08-07T05:38:08.194Z,21.72
2022-08-07T05:43:13.842Z,22.20
2022-08-07T05:48:26.292Z,22.69
2022-08-07T05:54:11.955Z,23.05
2022-08-07T05:58:55.936Z,23.47
2022-08-07T06:04:03.860Z,23.76
2022-08-07T06:09:15.291Z,24.13
2022-08-07T06:14:28.851Z,24.43
2022-08-07T06:19:57.684Z,24.81
2022-08-07T06:25:03.129Z,25.32
2022-08-07T06:30:08.319Z,28.40
2022-08-07T06:35:39.182Z,30.51
2022-08-07T06:40:54.992Z,31.45
2022-08-07T06:46:01.090Z,31.80
2022-08-07T06:51:09.627Z,32.14
2022-08-07T06:56:17.847Z,32.45
2022-08-07T07:01:23.961Z,32.65
2022-08-07T07:06:39.355Z,33.59
2022-08-07T07:12:09.011Z,33.02
2022-08-07T07:17:38.890Z,33.12
2022-08-07T07:24:09.419Z,32.42
2022-08-07T07:28:42.106Z,32.73
2022-08-07T07:33:43.851Z,32.50
2022-08-07T07:39:00.743Z,33.39
2022-08-07T07:44:17.161Z,33.84
2022-08-07T07:50:35.830Z,34.07
2022-08-07T07:54:52.199Z,33.50
2022-08-07T07:59:56.229Z,34.14
2022-08-07T08:05:14.389Z,34.29
2022-08-07T08:10:35.572Z,34.87
2022-08-07T08:15:57.721Z,35.72
2022-08-07T08:21:26.706Z,34.32
2022-08-07T08:27:12.352Z,34.71
2022-08-07T08:32:25.480Z,34.93
2022-08-07T08:38:00.901Z,34.21
2022-08-07T08:43:16.651Z,35.07
2022-08-07T08:48:58.525Z,34.17
2022-08-07T08:54:11.358Z,34.00
2022-08-07T08:59:23.201Z,35.16
2022-08-07T09:04:47.719Z,35.98
2022-08-07T09:10:05.763Z,35.08
2022-08-07T09:16:22.086Z,34.82
2022-08-07T09:22:09.947Z,35.42
2022-08-07T09:27:04.539Z,35.85
2022-08-07T09:32:38.408Z,34.83
2022-08-07T09:38:10.322Z,35.60
2022-08-07T09:44:03.518Z,34.55
2022-08-07T09:50:00.452Z,36.12
2022-08-07T09:54:45.298Z,35.26
2022-08-07T10:00:18.822Z,34.67
2022-08-07T10:06:01.304Z,35.29
2022-08-07T10:12:00.031Z,35.25
2022-08-07T10:16:55.798Z,34.27
2022-08-07T10:22:24.941Z,33.71
2022-08-07T10:27:52.326Z,35.10
2022-08-07T10:34:04.101Z,34.87
2022-08-07T10:39:11.120Z,34.76
2022-08-07T10:44:38.418Z,34.26
2022-08-07T10:49:51.795Z,35.36
2022-08-07T10:55:26.632Z,35.33
2022-08-07T11:00:50.285Z,33.89
2022-08-07T11:06:18.458Z,32.73
2022-08-07T11:11:35.614Z,32.72
2022-08-07T11:16:52.772Z,33.08
2022-08-07T11:22:18.762Z,32.55
2022-08-07T11:28:02.999Z,31.46
2022-08-07T11:33:18.265Z,30.67
2022-08-07T11:38:34.006Z,29.15
2022-08-07T11:44:11.070Z,27.56
2022-08-07T11:49:50.658Z,26.97
2022-08-07T11:55:18.631Z,26.40
2022-08-07T12:00:41.758Z,25.84
2022-08-07T12:06:37.604Z,25.96
2022-08-07T12:12:10.623Z,26.34
2022-08-07T12:17:20.352Z,26.88
2022-08-07T12:22:56.328Z,26.52
2022-08-07T12:28:13.450Z,27.40
2022-08-07T12:33:30.978Z,28.24
2022-08-07T12:38:57.519Z,28.83
2022-08-07T12:44:13.135Z,29.04
2022-08-07T12:49:50.972Z,29.45
2022-08-07T12:55:05.618Z,29.60
2022-08-07T13:00:20.785Z,29.15
2022-08-07T13:06:21.886Z,28.85
2022-08-07T13:12:02.268Z,28.60
2022-08-07T13:17:40.008Z,28.69
2022-08-07T13:23:03.803Z,28.33
2022-08-07T13:28:24.151Z,28.41
2022-08-07T13:34:30.139Z,29.34
2022-08-07T13:39:28.693Z,28.47
2022-08-07T13:44:42.466Z,27.49
2022-08-07T13:50:33.402Z,26.90
2022-08-07T13:55:19.538Z,25.78
2022-08-07T14:00:50.587Z,24.91
2022-08-07T14:10:21.726Z,21.19
2022-08-07T14:24:50.188Z,18.96
2022-08-07T14:30:06.589Z,19.23
2022-08-07T14:35:34.425Z,19.89
2022-08-07T14:43:59.028Z,19.79
2022-08-07T15:05:26.922Z,20.96
2022-08-07T15:10:33.344Z,21.35
2022-08-07T15:15:38.906Z,21.49
2022-08-07T15:20:54.962Z,21.99
2022-08-07T15:26:02.990Z,22.60
2022-08-07T15:31:10.897Z,22.86
2022-08-07T15:37:03.151Z,22.90
2022-08-07T15:48:00.390Z,22.83
2022-08-07T15:52:52.080Z,22.97
2022-08-07T15:58:00.312Z,22.88
2022-08-07T16:03:21.669Z,22.91
2022-08-07T16:08:38.600Z,23.13
2022-08-07T16:14:20.430Z,23.30
2022-08-07T16:19:43.166Z,23.34
2022-08-07T16:25:54.666Z,23.20
2022-08-07T16:31:51.868Z,22.97
2022-08-07T16:37:02.831Z,22.86
2022-08-07T16:42:55.259Z,22.82
2022-08-07T16:48:30.071Z,22.69
2022-08-07T16:54:09.018Z,22.49
2022-08-07T16:59:19.258Z,22.51
2022-08-07T17:04:51.105Z,22.51
2022-08-07T17:10:08.284Z,22.44
2022-08-07T17:15:15.781Z,22.26
2022-08-07T17:20:46.712Z,22.15
2022-08-07T17:26:22.648Z,21.98
2022-08-07T17:32:02.518Z,21.77
2022-08-07T17:38:09.739Z,21.61
2022-08-07T17:43:02.056Z,21.30
2022-08-07T17:48:30.702Z,21.09
2022-08-07T17:54:00.021Z,20.91
2022-08-07T17:59:17.127Z,20.71
2022-08-07T18:04:38.595Z,20.38
2022-08-07T18:10:05.945Z,20.15
2022-08-07T18:15:23.537Z,20.01
2022-08-07T18:21:11.870Z,19.73
2022-08-07T18:26:16.305Z,19.63
2022-08-07T18:31:49.922Z,19.52
2022-08-07T18:38:56.014Z,19.35
2022-08-07T18:43:00.059Z,19.29
2022-08-07T18:50:49.693Z,19.23
2022-08-07T18:56:14.309Z,19.40
2022-08-07T19:02:18.249Z,19.67
2022-08-07T19:07:56.959Z,19.77
2022-08-07T19:13:11.654Z,19.88
2022-08-07T19:18:34.858Z,19.95
2022-08-07T19:23:57.089Z,20.10
2022-08-07T19:31:01.705Z,20.15
2022-08-07T19:34:36.395Z,20.22
2022-08-07T19:39:57.949Z,20.09
2022-08-07T19:45:09.955Z,20.02
2022-08-07T19:50:41.125Z,20.14
2022-08-07T19:55:56.905Z,19.92
2022-08-07T20:01:01.675Z,19.76
2022-08-07T20:06:15.530Z,19.55
2022-08-07T20:12:01.403Z,19.34
2022-08-07T20:17:00.397Z,19.14
2022-08-07T20:22:12.331Z,19.00
2022-08-07T20:27:46.275Z,18.85
2022-08-07T20:32:46.715Z,18.68
2022-08-07T20:37:59.195Z,18.66
2022-08-07T20:43:09.580Z,18.55
2022-08-07T20:48:28.784Z,18.45
2022-08-07T20:54:03.343Z,18.37
2022-08-07T20:59:03.509Z,18.20
2022-08-07T21:04:25.157Z,18.11
2022-08-07T21:09:52.678Z,18.11
2022-08-07T21:15:02.467Z,18.08
2022-08-07T21:20:10.032Z,18.32
2022-08-07T21:25:56.153Z,18.34
2022-08-07T21:31:31.276Z,18.39
2022-08-07T21:37:03.916Z,18.32
2022-08-07T21:42:41.992Z,18.27
2022-08-07T21:48:27.703Z,18.12
2022-08-07T21:53:52.450Z,17.89
2022-08-07T21:59:07.122Z,17.77
2022-08-07T22:04:23.681Z,17.84
2022-08-07T22:09:38.086Z,18.06
2022-08-07T22:15:04.154Z,18.16
2022-08-07T22:20:50.160Z,18.00
2022-08-07T22:26:06.704Z,17.91
2022-08-07T22:31:59.035Z,17.88
2022-08-07T22:37:09.269Z,17.86
2022-08-07T22:42:20.169Z,17.82
2022-08-07T22:47:42.343Z,17.79
2022-08-07T22:54:07.000Z,17.67
2022-08-07T22:58:53.235Z,17.65
2022-08-07T23:04:13.976Z,17.73
2022-08-07T23:10:05.146Z,17.75
2022-08-07T23:16:07.149Z,17.83
2022-08-07T23:21:16.308Z,17.66
2022-08-07T23:26:26.418Z,17.40
2022-08-07T23:34:19.695Z,17.25
2022-08-07T23:37:30.202Z,17.22
2022-08-07T23:42:55.163Z,17.05
2022-08-07T23:48:07.069Z,16.92
2022-08-07T23:53:22.763Z,16.87
2022-08-07T23:59:10.871Z,16.91
